SCPF weather

Marcel Marchant Airport
Puerto Montt, Los Lagos Region, Chile

Public forecast

Using degrees Celsius for public forecast. Weather courtesy of forecast.io.

METAR (pilot weather report)

Closest report is El Tepual Airport, 8.0 nm (14.8 km) W. Retrieved 2019/04/20 00:00 UTC (11 minutes ago):

SCTE 200000Z 17004KT 9999 OVC017 10/08 Q1019 NOSIG

TAF (pilot weather forecast)

Forecast is more than 12 hours old.

Closest forecast is El Tepual Airport, 8.0 nm (14.8 km) W. Retrieved 2019/04/19 00:00 UTC (1 day ago):

TAF COR SCTE 192309Z 2000/2100 18012KT 9999 BKN018 TN01/2011Z TX13/2021Z TEMPO 2008/2012 18004KT 3000 BR OVC005 BECMG 2015/2017 BKN018 BECMG 2019/2022 SCT025